sensor_id;sensor_type;location;lat;lon;timestamp;temperature;humidity
69393;SHT31;56582;44.624;20.378;2022-08-19T00:01:53;25.75;49.60
69393;SHT31;56582;44.624;20.378;2022-08-19T00:04:22;25.74;49.42
69393;SHT31;56582;44.624;20.378;2022-08-19T00:06:47;25.85;49.13
69393;SHT31;56582;44.624;20.378;2022-08-19T00:09:15;25.92;48.89
69393;SHT31;56582;44.624;20.378;2022-08-19T00:11:42;25.92;48.86
69393;SHT31;56582;44.624;20.378;2022-08-19T00:14:10;25.99;48.90
69393;SHT31;56582;44.624;20.378;2022-08-19T00:16:41;26.08;48.58
69393;SHT31;56582;44.624;20.378;2022-08-19T00:19:07;26.02;48.80
69393;SHT31;56582;44.624;20.378;2022-08-19T00:21:33;26.01;48.69
69393;SHT31;56582;44.624;20.378;2022-08-19T00:24:03;26.04;48.87
69393;SHT31;56582;44.624;20.378;2022-08-19T00:26:29;26.01;48.65
69393;SHT31;56582;44.624;20.378;2022-08-19T00:28:55;26.01;48.79
69393;SHT31;56582;44.624;20.378;2022-08-19T00:31:20;25.96;49.04
69393;SHT31;56582;44.624;20.378;2022-08-19T00:33:46;26.08;48.89
69393;SHT31;56582;44.624;20.378;2022-08-19T00:36:13;26.18;48.54
69393;SHT31;56582;44.624;20.378;2022-08-19T00:38:39;26.11;48.69
69393;SHT31;56582;44.624;20.378;2022-08-19T00:41:09;26.09;49.14
69393;SHT31;56582;44.624;20.378;2022-08-19T00:43:34;26.08;48.81
69393;SHT31;56582;44.624;20.378;2022-08-19T00:46:00;26.16;48.75
69393;SHT31;56582;44.624;20.378;2022-08-19T00:48:30;26.11;48.84
69393;SHT31;56582;44.624;20.378;2022-08-19T00:50:57;26.08;49.13
69393;SHT31;56582;44.624;20.378;2022-08-19T00:53:24;26.04;49.23
69393;SHT31;56582;44.624;20.378;2022-08-19T00:55:53;26.15;48.97
69393;SHT31;56582;44.624;20.378;2022-08-19T00:58:22;26.02;49.41
69393;SHT31;56582;44.624;20.378;2022-08-19T01:00:50;25.99;49.63
69393;SHT31;56582;44.624;20.378;2022-08-19T01:03:18;26.13;49.89
69393;SHT31;56582;44.624;20.378;2022-08-19T01:05:45;26.12;49.69
69393;SHT31;56582;44.624;20.378;2022-08-19T01:08:14;26.16;49.79
69393;SHT31;56582;44.624;20.378;2022-08-19T01:10:45;26.06;49.83
69393;SHT31;56582;44.624;20.378;2022-08-19T01:13:14;26.12;50.11
69393;SHT31;56582;44.624;20.378;2022-08-19T01:15:44;26.09;50.17
69393;SHT31;56582;44.624;20.378;2022-08-19T01:18:13;26.04;50.19
69393;SHT31;56582;44.624;20.378;2022-08-19T01:20:40;26.13;50.41
69393;SHT31;56582;44.624;20.378;2022-08-19T01:23:06;26.09;50.27
69393;SHT31;56582;44.624;20.378;2022-08-19T01:25:39;25.99;50.47
69393;SHT31;56582;44.624;20.378;2022-08-19T01:28:07;25.99;50.29
69393;SHT31;56582;44.624;20.378;2022-08-19T01:30:35;26.16;50.15
69393;SHT31;56582;44.624;20.378;2022-08-19T01:33:02;26.23;49.85
69393;SHT31;56582;44.624;20.378;2022-08-19T01:35:30;26.33;49.27
69393;SHT31;56582;44.624;20.378;2022-08-19T01:38:00;26.26;49.58
69393;SHT31;56582;44.624;20.378;2022-08-19T01:40:30;26.28;49.54
69393;SHT31;56582;44.624;20.378;2022-08-19T01:42:57;26.36;49.65
69393;SHT31;56582;44.624;20.378;2022-08-19T01:45:27;26.22;49.85
69393;SHT31;56582;44.624;20.378;2022-08-19T01:47:53;26.12;50.54
69393;SHT31;56582;44.624;20.378;2022-08-19T01:50:19;26.04;50.48
69393;SHT31;56582;44.624;20.378;2022-08-19T01:52:46;26.01;50.30
69393;SHT31;56582;44.624;20.378;2022-08-19T01:55:15;26.08;50.23
69393;SHT31;56582;44.624;20.378;2022-08-19T01:57:44;26.01;50.33
69393;SHT31;56582;44.624;20.378;2022-08-19T02:00:13;26.02;50.72
69393;SHT31;56582;44.624;20.378;2022-08-19T02:02:41;26.04;50.43
69393;SHT31;56582;44.624;20.378;2022-08-19T02:05:07;26.05;50.21
69393;SHT31;56582;44.624;20.378;2022-08-19T02:07:34;25.99;50.51
69393;SHT31;56582;44.624;20.378;2022-08-19T02:10:04;25.95;50.40
69393;SHT31;56582;44.624;20.378;2022-08-19T02:12:29;25.96;50.40
69393;SHT31;56582;44.624;20.378;2022-08-19T02:14:55;25.96;50.22
69393;SHT31;56582;44.624;20.378;2022-08-19T02:17:20;25.99;50.10
69393;SHT31;56582;44.624;20.378;2022-08-19T02:19:46;26.04;49.95
69393;SHT31;56582;44.624;20.378;2022-08-19T02:22:14;26.12;49.57
69393;SHT31;56582;44.624;20.378;2022-08-19T02:24:39;26.16;49.52
69393;SHT31;56582;44.624;20.378;2022-08-19T02:27:05;26.16;49.54
69393;SHT31;56582;44.624;20.378;2022-08-19T02:29:31;26.19;49.52
69393;SHT31;56582;44.624;20.378;2022-08-19T02:31:57;26.33;49.19
69393;SHT31;56582;44.624;20.378;2022-08-19T02:34:22;26.28;49.38
69393;SHT31;56582;44.624;20.378;2022-08-19T02:36:50;26.26;49.43
69393;SHT31;56582;44.624;20.378;2022-08-19T02:39:16;26.25;49.33
69393;SHT31;56582;44.624;20.378;2022-08-19T02:41:41;26.21;49.32
69393;SHT31;56582;44.624;20.378;2022-08-19T02:44:07;26.21;49.16
69393;SHT31;56582;44.624;20.378;2022-08-19T02:46:33;26.12;49.56
69393;SHT31;56582;44.624;20.378;2022-08-19T02:49:04;26.21;49.71
69393;SHT31;56582;44.624;20.378;2022-08-19T02:51:37;26.19;49.36
69393;SHT31;56582;44.624;20.378;2022-08-19T02:54:04;25.96;49.95
69393;SHT31;56582;44.624;20.378;2022-08-19T02:56:30;25.99;49.77
69393;SHT31;56582;44.624;20.378;2022-08-19T02:58:56;25.99;49.87
69393;SHT31;56582;44.624;20.378;2022-08-19T03:01:25;25.98;50.08
69393;SHT31;56582;44.624;20.378;2022-08-19T03:03:52;25.92;50.19
69393;SHT31;56582;44.624;20.378;2022-08-19T03:06:18;25.82;50.46
69393;SHT31;56582;44.624;20.378;2022-08-19T03:08:46;25.78;50.68
69393;SHT31;56582;44.624;20.378;2022-08-19T03:11:13;25.75;50.94
69393;SHT31;56582;44.624;20.378;2022-08-19T03:13:39;25.65;50.84
69393;SHT31;56582;44.624;20.378;2022-08-19T03:16:05;25.60;51.50
69393;SHT31;56582;44.624;20.378;2022-08-19T03:18:31;25.60;51.46
69393;SHT31;56582;44.624;20.378;2022-08-19T03:20:56;25.73;51.41
69393;SHT31;56582;44.624;20.378;2022-08-19T03:23:23;25.74;51.27
69393;SHT31;56582;44.624;20.378;2022-08-19T03:25:50;25.51;51.77
69393;SHT31;56582;44.624;20.378;2022-08-19T03:28:16;25.37;52.04
69393;SHT31;56582;44.624;20.378;2022-08-19T03:30:43;25.37;51.69
69393;SHT31;56582;44.624;20.378;2022-08-19T03:33:20;25.30;52.63
69393;SHT31;56582;44.624;20.378;2022-08-19T03:35:46;25.19;52.20
69393;SHT31;56582;44.624;20.378;2022-08-19T03:38:12;25.12;52.54
69393;SHT31;56582;44.624;20.378;2022-08-19T03:40:37;25.23;52.33
69393;SHT31;56582;44.624;20.378;2022-08-19T03:43:03;25.19;52.13
69393;SHT31;56582;44.624;20.378;2022-08-19T03:45:28;25.13;52.44
69393;SHT31;56582;44.624;20.378;2022-08-19T03:47:55;25.09;55.46
69393;SHT31;56582;44.624;20.378;2022-08-19T03:50:21;25.19;63.14
69393;SHT31;56582;44.624;20.378;2022-08-19T03:52:50;25.16;53.79
69393;SHT31;56582;44.624;20.378;2022-08-19T03:55:17;25.16;57.15
69393;SHT31;56582;44.624;20.378;2022-08-19T03:57:42;25.00;54.69
69393;SHT31;56582;44.624;20.378;2022-08-19T04:00:09;25.09;53.37
69393;SHT31;56582;44.624;20.378;2022-08-19T04:02:34;25.12;53.27
69393;SHT31;56582;44.624;20.378;2022-08-19T04:05:00;25.20;52.83
69393;SHT31;56582;44.624;20.378;2022-08-19T04:07:26;25.19;52.87
69393;SHT31;56582;44.624;20.378;2022-08-19T04:09:51;25.13;52.74
69393;SHT31;56582;44.624;20.378;2022-08-19T04:12:17;25.20;52.77
69393;SHT31;56582;44.624;20.378;2022-08-19T04:14:42;25.19;52.50
69393;SHT31;56582;44.624;20.378;2022-08-19T04:17:08;25.19;52.52
69393;SHT31;56582;44.624;20.378;2022-08-19T04:19:35;25.36;51.91
69393;SHT31;56582;44.624;20.378;2022-08-19T04:22:00;25.28;52.20
69393;SHT31;56582;44.624;20.378;2022-08-19T04:24:26;25.46;52.16
69393;SHT31;56582;44.624;20.378;2022-08-19T04:26:52;25.44;52.13
69393;SHT31;56582;44.624;20.378;2022-08-19T04:29:23;25.34;52.00
69393;SHT31;56582;44.624;20.378;2022-08-19T04:31:51;25.36;51.98
69393;SHT31;56582;44.624;20.378;2022-08-19T04:34:20;25.38;52.78
69393;SHT31;56582;44.624;20.378;2022-08-19T04:36:47;25.46;52.09
69393;SHT31;56582;44.624;20.378;2022-08-19T04:39:18;25.57;51.61
69393;SHT31;56582;44.624;20.378;2022-08-19T04:41:44;25.57;52.09
69393;SHT31;56582;44.624;20.378;2022-08-19T04:44:33;25.47;52.34
69393;SHT31;56582;44.624;20.378;2022-08-19T04:46:59;25.67;52.54
69393;SHT31;56582;44.624;20.378;2022-08-19T04:49:25;25.68;52.29
69393;SHT31;56582;44.624;20.378;2022-08-19T04:51:52;25.70;52.40
69393;SHT31;56582;44.624;20.378;2022-08-19T04:54:20;25.70;53.29
69393;SHT31;56582;44.624;20.378;2022-08-19T04:56:51;25.64;55.11
69393;SHT31;56582;44.624;20.378;2022-08-19T04:59:17;25.77;56.86
69393;SHT31;56582;44.624;20.378;2022-08-19T05:01:44;25.63;58.41
69393;SHT31;56582;44.624;20.378;2022-08-19T05:04:14;25.71;55.52
69393;SHT31;56582;44.624;20.378;2022-08-19T05:06:40;25.80;56.80
69393;SHT31;56582;44.624;20.378;2022-08-19T05:09:06;25.73;56.29
69393;SHT31;56582;44.624;20.378;2022-08-19T05:11:34;25.78;55.63
69393;SHT31;56582;44.624;20.378;2022-08-19T05:14:00;25.88;55.48
69393;SHT31;56582;44.624;20.378;2022-08-19T05:16:27;25.95;56.10
69393;SHT31;56582;44.624;20.378;2022-08-19T05:18:53;26.13;55.75
69393;SHT31;56582;44.624;20.378;2022-08-19T05:21:39;26.22;55.60
69393;SHT31;56582;44.624;20.378;2022-08-19T05:24:23;26.35;54.05
69393;SHT31;56582;44.624;20.378;2022-08-19T05:26:51;26.47;53.91
69393;SHT31;56582;44.624;20.378;2022-08-19T05:29:18;26.57;54.69
69393;SHT31;56582;44.624;20.378;2022-08-19T05:31:46;26.61;55.07
69393;SHT31;56582;44.624;20.378;2022-08-19T05:34:14;26.73;56.16
69393;SHT31;56582;44.624;20.378;2022-08-19T05:36:42;26.81;55.90
69393;SHT31;56582;44.624;20.378;2022-08-19T05:39:13;26.93;56.93
69393;SHT31;56582;44.624;20.378;2022-08-19T05:41:47;27.00;56.79
69393;SHT31;56582;44.624;20.378;2022-08-19T05:44:14;26.98;55.97
69393;SHT31;56582;44.624;20.378;2022-08-19T05:46:42;27.12;58.38
69393;SHT31;56582;44.624;20.378;2022-08-19T05:49:08;27.25;59.94
69393;SHT31;56582;44.624;20.378;2022-08-19T05:51:35;27.27;60.66
69393;SHT31;56582;44.624;20.378;2022-08-19T05:54:03;27.31;61.68
69393;SHT31;56582;44.624;20.378;2022-08-19T05:56:29;27.39;62.07
69393;SHT31;56582;44.624;20.378;2022-08-19T05:59:02;27.53;62.31
69393;SHT31;56582;44.624;20.378;2022-08-19T06:01:28;27.60;61.94
69393;SHT31;56582;44.624;20.378;2022-08-19T06:03:53;27.74;61.74
69393;SHT31;56582;44.624;20.378;2022-08-19T06:06:19;27.89;61.94
69393;SHT31;56582;44.624;20.378;2022-08-19T06:08:45;28.03;62.33
69393;SHT31;56582;44.624;20.378;2022-08-19T06:11:33;28.03;62.17
69393;SHT31;56582;44.624;20.378;2022-08-19T06:14:03;28.01;60.81
69393;SHT31;56582;44.624;20.378;2022-08-19T06:16:29;28.08;62.63
69393;SHT31;56582;44.624;20.378;2022-08-19T06:19:00;28.18;60.61
69393;SHT31;56582;44.624;20.378;2022-08-19T06:21:27;28.41;61.98
69393;SHT31;56582;44.624;20.378;2022-08-19T06:23:55;28.57;62.12
69393;SHT31;56582;44.624;20.378;2022-08-19T06:26:21;28.72;60.45
69393;SHT31;56582;44.624;20.378;2022-08-19T06:28:48;28.85;61.05
69393;SHT31;56582;44.624;20.378;2022-08-19T06:31:16;28.95;59.70
69393;SHT31;56582;44.624;20.378;2022-08-19T06:33:43;29.02;59.83
69393;SHT31;56582;44.624;20.378;2022-08-19T06:38:46;29.38;55.09
69393;SHT31;56582;44.624;20.378;2022-08-19T06:41:12;29.46;55.00
69393;SHT31;56582;44.624;20.378;2022-08-19T06:43:37;29.60;56.95
69393;SHT31;56582;44.624;20.378;2022-08-19T06:46:03;29.75;58.40
69393;SHT31;56582;44.624;20.378;2022-08-19T06:48:29;29.98;54.76
69393;SHT31;56582;44.624;20.378;2022-08-19T06:50:55;30.06;55.75
69393;SHT31;56582;44.624;20.378;2022-08-19T06:53:21;30.18;54.28
69393;SHT31;56582;44.624;20.378;2022-08-19T06:55:47;30.18;55.89
69393;SHT31;56582;44.624;20.378;2022-08-19T06:58:13;30.33;52.47
69393;SHT31;56582;44.624;20.378;2022-08-19T07:00:39;30.60;52.45
69393;SHT31;56582;44.624;20.378;2022-08-19T07:03:05;30.83;54.33
69393;SHT31;56582;44.624;20.378;2022-08-19T07:05:30;30.84;53.43
69393;SHT31;56582;44.624;20.378;2022-08-19T07:07:55;30.87;54.55
69393;SHT31;56582;44.624;20.378;2022-08-19T07:10:22;31.11;53.91
69393;SHT31;56582;44.624;20.378;2022-08-19T07:12:47;31.25;51.90
69393;SHT31;56582;44.624;20.378;2022-08-19T07:15:15;31.39;51.42
69393;SHT31;56582;44.624;20.378;2022-08-19T07:17:41;31.46;50.79
69393;SHT31;56582;44.624;20.378;2022-08-19T07:20:09;31.53;50.26
69393;SHT31;56582;44.624;20.378;2022-08-19T07:22:36;31.65;51.84
69393;SHT31;56582;44.624;20.378;2022-08-19T07:25:03;31.63;51.94
69393;SHT31;56582;44.624;20.378;2022-08-19T07:27:29;31.72;50.59
69393;SHT31;56582;44.624;20.378;2022-08-19T07:29:55;31.83;51.10
69393;SHT31;56582;44.624;20.378;2022-08-19T07:32:20;31.90;50.68
69393;SHT31;56582;44.624;20.378;2022-08-19T07:34:45;31.98;50.86
69393;SHT31;56582;44.624;20.378;2022-08-19T07:37:11;32.12;54.17
69393;SHT31;56582;44.624;20.378;2022-08-19T07:39:38;32.20;49.35
69393;SHT31;56582;44.624;20.378;2022-08-19T07:42:07;32.23;45.51
69393;SHT31;56582;44.624;20.378;2022-08-19T07:44:34;32.25;47.01
69393;SHT31;56582;44.624;20.378;2022-08-19T07:47:00;32.24;48.52
69393;SHT31;56582;44.624;20.378;2022-08-19T07:49:26;32.38;43.87
69393;SHT31;56582;44.624;20.378;2022-08-19T07:52:01;32.43;52.51
69393;SHT31;56582;44.624;20.378;2022-08-19T07:54:29;32.40;46.90
69393;SHT31;56582;44.624;20.378;2022-08-19T07:56:55;32.54;45.63
69393;SHT31;56582;44.624;20.378;2022-08-19T07:59:21;32.60;43.09
69393;SHT31;56582;44.624;20.378;2022-08-19T08:01:47;32.58;43.89
69393;SHT31;56582;44.624;20.378;2022-08-19T08:04:13;32.65;44.03
69393;SHT31;56582;44.624;20.378;2022-08-19T08:06:57;32.71;44.39
69393;SHT31;56582;44.624;20.378;2022-08-19T08:09:43;32.94;42.44
69393;SHT31;56582;44.624;20.378;2022-08-19T08:12:16;32.89;42.03
69393;SHT31;56582;44.624;20.378;2022-08-19T08:14:51;32.94;42.02
69393;SHT31;56582;44.624;20.378;2022-08-19T08:17:19;32.98;40.51
69393;SHT31;56582;44.624;20.378;2022-08-19T08:19:45;33.05;41.88
69393;SHT31;56582;44.624;20.378;2022-08-19T08:22:15;33.32;43.90
69393;SHT31;56582;44.624;20.378;2022-08-19T08:25:25;33.30;44.02
69393;SHT31;56582;44.624;20.378;2022-08-19T08:27:51;33.46;41.55
69393;SHT31;56582;44.624;20.378;2022-08-19T08:30:19;33.43;44.45
69393;SHT31;56582;44.624;20.378;2022-08-19T08:32:45;33.43;42.77
69393;SHT31;56582;44.624;20.378;2022-08-19T08:35:17;33.53;40.82
69393;SHT31;56582;44.624;20.378;2022-08-19T08:37:44;33.59;46.83
69393;SHT31;56582;44.624;20.378;2022-08-19T08:43:32;33.80;41.16
69393;SHT31;56582;44.624;20.378;2022-08-19T08:45:55;33.71;41.64
69393;SHT31;56582;44.624;20.378;2022-08-19T08:48:32;33.90;41.71
69393;SHT31;56582;44.624;20.378;2022-08-19T08:51:03;34.02;45.16
69393;SHT31;56582;44.624;20.378;2022-08-19T08:53:30;33.97;43.76
69393;SHT31;56582;44.624;20.378;2022-08-19T08:55:57;34.09;41.17
69393;SHT31;56582;44.624;20.378;2022-08-19T09:00:59;34.25;41.72
69393;SHT31;56582;44.624;20.378;2022-08-19T09:03:27;34.45;43.10
69393;SHT31;56582;44.624;20.378;2022-08-19T09:09:42;34.73;40.40
69393;SHT31;56582;44.624;20.378;2022-08-19T09:16:45;34.92;39.08
69393;SHT31;56582;44.624;20.378;2022-08-19T09:19:11;34.83;39.56
69393;SHT31;56582;44.624;20.378;2022-08-19T09:21:36;34.92;39.40
69393;SHT31;56582;44.624;20.378;2022-08-19T09:24:03;34.99;39.76
69393;SHT31;56582;44.624;20.378;2022-08-19T09:26:31;35.10;38.03
69393;SHT31;56582;44.624;20.378;2022-08-19T09:28:58;35.17;42.08
69393;SHT31;56582;44.624;20.378;2022-08-19T09:31:27;35.21;39.53
69393;SHT31;56582;44.624;20.378;2022-08-19T09:33:53;35.18;38.81
69393;SHT31;56582;44.624;20.378;2022-08-19T09:36:23;35.34;39.61
69393;SHT31;56582;44.624;20.378;2022-08-19T09:38:50;35.48;38.77
69393;SHT31;56582;44.624;20.378;2022-08-19T09:41:20;35.41;38.71
69393;SHT31;56582;44.624;20.378;2022-08-19T09:43:49;35.42;39.47
69393;SHT31;56582;44.624;20.378;2022-08-19T09:46:17;35.44;40.32
69393;SHT31;56582;44.624;20.378;2022-08-19T09:48:44;35.78;38.00
69393;SHT31;56582;44.624;20.378;2022-08-19T09:51:15;35.68;38.26
69393;SHT31;56582;44.624;20.378;2022-08-19T09:53:42;35.58;39.34
69393;SHT31;56582;44.624;20.378;2022-08-19T09:56:07;35.55;37.15
69393;SHT31;56582;44.624;20.378;2022-08-19T09:58:34;35.65;39.00
69393;SHT31;56582;44.624;20.378;2022-08-19T10:01:01;35.72;38.03
69393;SHT31;56582;44.624;20.378;2022-08-19T10:03:28;35.77;38.83
69393;SHT31;56582;44.624;20.378;2022-08-19T10:05:54;35.72;38.16
69393;SHT31;56582;44.624;20.378;2022-08-19T10:08:26;35.70;37.28
69393;SHT31;56582;44.624;20.378;2022-08-19T10:10:52;35.65;38.52
69393;SHT31;56582;44.624;20.378;2022-08-19T10:13:21;35.64;37.86
69393;SHT31;56582;44.624;20.378;2022-08-19T10:15:51;35.65;39.72
69393;SHT31;56582;44.624;20.378;2022-08-19T10:18:19;35.77;37.67
69393;SHT31;56582;44.624;20.378;2022-08-19T10:20:47;35.77;38.27
69393;SHT31;56582;44.624;20.378;2022-08-19T10:23:13;35.75;40.78
69393;SHT31;56582;44.624;20.378;2022-08-19T10:25:40;35.88;38.07
69393;SHT31;56582;44.624;20.378;2022-08-19T10:28:06;35.98;39.48
69393;SHT31;56582;44.624;20.378;2022-08-19T10:30:33;35.99;39.70
69393;SHT31;56582;44.624;20.378;2022-08-19T10:33:00;36.29;37.33
69393;SHT31;56582;44.624;20.378;2022-08-19T10:35:25;36.19;37.89
69393;SHT31;56582;44.624;20.378;2022-08-19T10:37:55;36.13;37.41
69393;SHT31;56582;44.624;20.378;2022-08-19T10:40:24;36.23;38.38
69393;SHT31;56582;44.624;20.378;2022-08-19T10:42:50;36.30;36.11
69393;SHT31;56582;44.624;20.378;2022-08-19T10:45:16;36.18;37.33
69393;SHT31;56582;44.624;20.378;2022-08-19T10:47:42;36.25;39.07
69393;SHT31;56582;44.624;20.378;2022-08-19T10:50:07;36.10;39.38
69393;SHT31;56582;44.624;20.378;2022-08-19T10:52:51;36.15;35.94
69393;SHT31;56582;44.624;20.378;2022-08-19T10:55:20;36.08;37.00
69393;SHT31;56582;44.624;20.378;2022-08-19T10:58:13;36.09;36.91
69393;SHT31;56582;44.624;20.378;2022-08-19T11:00:39;36.08;36.09
69393;SHT31;56582;44.624;20.378;2022-08-19T11:03:06;36.12;35.62
69393;SHT31;56582;44.624;20.378;2022-08-19T11:05:31;36.22;39.46
69393;SHT31;56582;44.624;20.378;2022-08-19T11:07:57;36.35;37.28
69393;SHT31;56582;44.624;20.378;2022-08-19T11:10:22;36.37;41.43
69393;SHT31;56582;44.624;20.378;2022-08-19T11:12:48;36.36;38.05
69393;SHT31;56582;44.624;20.378;2022-08-19T11:15:19;36.43;37.04
69393;SHT31;56582;44.624;20.378;2022-08-19T11:17:44;36.22;37.01
69393;SHT31;56582;44.624;20.378;2022-08-19T11:20:14;36.16;36.35
69393;SHT31;56582;44.624;20.378;2022-08-19T11:22:42;36.23;38.49
69393;SHT31;56582;44.624;20.378;2022-08-19T11:25:10;36.29;37.09
69393;SHT31;56582;44.624;20.378;2022-08-19T11:27:40;36.20;36.09
69393;SHT31;56582;44.624;20.378;2022-08-19T11:30:11;36.12;35.72
69393;SHT31;56582;44.624;20.378;2022-08-19T11:32:37;36.33;36.88
69393;SHT31;56582;44.624;20.378;2022-08-19T11:35:02;36.43;36.36
69393;SHT31;56582;44.624;20.378;2022-08-19T11:37:28;36.51;38.25
69393;SHT31;56582;44.624;20.378;2022-08-19T11:39:54;36.56;36.95
69393;SHT31;56582;44.624;20.378;2022-08-19T11:42:19;36.66;36.54
69393;SHT31;56582;44.624;20.378;2022-08-19T11:45:03;36.76;37.37
69393;SHT31;56582;44.624;20.378;2022-08-19T11:47:30;36.77;36.91
69393;SHT31;56582;44.624;20.378;2022-08-19T11:49:56;36.73;38.58
69393;SHT31;56582;44.624;20.378;2022-08-19T11:52:21;36.88;34.37
69393;SHT31;56582;44.624;20.378;2022-08-19T11:54:47;36.81;34.76
69393;SHT31;56582;44.624;20.378;2022-08-19T11:57:13;36.87;36.19
69393;SHT31;56582;44.624;20.378;2022-08-19T11:59:42;36.80;33.93
69393;SHT31;56582;44.624;20.378;2022-08-19T12:02:07;36.76;34.69
69393;SHT31;56582;44.624;20.378;2022-08-19T12:04:32;36.77;35.68
69393;SHT31;56582;44.624;20.378;2022-08-19T12:06:58;36.86;36.27
69393;SHT31;56582;44.624;20.378;2022-08-19T12:09:23;36.98;37.79
69393;SHT31;56582;44.624;20.378;2022-08-19T12:11:49;37.05;36.61
69393;SHT31;56582;44.624;20.378;2022-08-19T12:14:15;37.22;37.00
69393;SHT31;56582;44.624;20.378;2022-08-19T12:16:44;37.26;36.49
69393;SHT31;56582;44.624;20.378;2022-08-19T12:19:11;36.94;34.42
69393;SHT31;56582;44.624;20.378;2022-08-19T12:21:36;37.01;33.44
69393;SHT31;56582;44.624;20.378;2022-08-19T12:24:04;36.87;34.88
69393;SHT31;56582;44.624;20.378;2022-08-19T12:26:30;36.92;34.84
69393;SHT31;56582;44.624;20.378;2022-08-19T12:28:57;37.02;34.96
69393;SHT31;56582;44.624;20.378;2022-08-19T12:31:24;37.13;37.47
69393;SHT31;56582;44.624;20.378;2022-08-19T12:33:50;37.13;36.77
69393;SHT31;56582;44.624;20.378;2022-08-19T12:36:17;37.26;36.50
69393;SHT31;56582;44.624;20.378;2022-08-19T12:38:43;37.15;35.72
69393;SHT31;56582;44.624;20.378;2022-08-19T12:41:12;37.08;35.00
69393;SHT31;56582;44.624;20.378;2022-08-19T12:43:37;37.01;32.53
69393;SHT31;56582;44.624;20.378;2022-08-19T12:46:04;36.90;34.12
69393;SHT31;56582;44.624;20.378;2022-08-19T12:48:31;36.95;35.75
69393;SHT31;56582;44.624;20.378;2022-08-19T12:50:56;36.76;35.23
69393;SHT31;56582;44.624;20.378;2022-08-19T12:53:22;36.73;34.09
69393;SHT31;56582;44.624;20.378;2022-08-19T12:55:47;36.80;35.04
69393;SHT31;56582;44.624;20.378;2022-08-19T12:58:13;36.92;35.23
69393;SHT31;56582;44.624;20.378;2022-08-19T13:00:39;37.05;35.50
69393;SHT31;56582;44.624;20.378;2022-08-19T13:03:05;36.98;33.28
69393;SHT31;56582;44.624;20.378;2022-08-19T13:05:32;37.01;34.30
69393;SHT31;56582;44.624;20.378;2022-08-19T13:08:00;36.95;37.43
69393;SHT31;56582;44.624;20.378;2022-08-19T13:10:31;36.99;34.37
69393;SHT31;56582;44.624;20.378;2022-08-19T13:13:00;37.13;33.49
69393;SHT31;56582;44.624;20.378;2022-08-19T13:15:27;37.17;35.19
69393;SHT31;56582;44.624;20.378;2022-08-19T13:17:54;37.08;36.45
69393;SHT31;56582;44.624;20.378;2022-08-19T13:20:21;36.91;36.21
69393;SHT31;56582;44.624;20.378;2022-08-19T13:22:47;36.95;35.05
69393;SHT31;56582;44.624;20.378;2022-08-19T13:25:14;36.98;34.60
69393;SHT31;56582;44.624;20.378;2022-08-19T13:27:41;37.22;33.18
69393;SHT31;56582;44.624;20.378;2022-08-19T13:30:09;37.22;33.07
69393;SHT31;56582;44.624;20.378;2022-08-19T13:32:54;37.29;33.66
69393;SHT31;56582;44.624;20.378;2022-08-19T13:35:40;37.15;31.83
69393;SHT31;56582;44.624;20.378;2022-08-19T13:38:06;37.08;33.49
69393;SHT31;56582;44.624;20.378;2022-08-19T13:40:32;36.97;36.08
69393;SHT31;56582;44.624;20.378;2022-08-19T13:42:59;36.80;37.09
69393;SHT31;56582;44.624;20.378;2022-08-19T13:45:26;36.83;34.77
69393;SHT31;56582;44.624;20.378;2022-08-19T13:47:53;36.76;33.46
69393;SHT31;56582;44.624;20.378;2022-08-19T13:50:24;36.70;33.58
69393;SHT31;56582;44.624;20.378;2022-08-19T13:52:53;36.88;33.38
69393;SHT31;56582;44.624;20.378;2022-08-19T13:55:20;37.02;31.84
69393;SHT31;56582;44.624;20.378;2022-08-19T13:57:45;37.05;33.65
69393;SHT31;56582;44.624;20.378;2022-08-19T14:00:15;37.19;32.24
69393;SHT31;56582;44.624;20.378;2022-08-19T14:02:44;37.17;33.72
69393;SHT31;56582;44.624;20.378;2022-08-19T14:05:12;36.97;32.59
69393;SHT31;56582;44.624;20.378;2022-08-19T14:07:38;37.19;33.58
69393;SHT31;56582;44.624;20.378;2022-08-19T14:10:06;36.99;31.89
69393;SHT31;56582;44.624;20.378;2022-08-19T14:12:32;36.77;34.32
69393;SHT31;56582;44.624;20.378;2022-08-19T14:14:58;36.57;36.34
69393;SHT31;56582;44.624;20.378;2022-08-19T14:17:24;36.25;38.92
69393;SHT31;56582;44.624;20.378;2022-08-19T14:19:56;36.18;34.80
69393;SHT31;56582;44.624;20.378;2022-08-19T14:22:22;36.39;34.06
69393;SHT31;56582;44.624;20.378;2022-08-19T14:24:47;36.18;34.80
69393;SHT31;56582;44.624;20.378;2022-08-19T14:27:13;36.28;34.78
69393;SHT31;56582;44.624;20.378;2022-08-19T14:29:39;36.02;34.87
69393;SHT31;56582;44.624;20.378;2022-08-19T14:32:05;36.15;34.16
69393;SHT31;56582;44.624;20.378;2022-08-19T14:34:30;35.79;34.68
69393;SHT31;56582;44.624;20.378;2022-08-19T14:36:57;35.54;35.60
69393;SHT31;56582;44.624;20.378;2022-08-19T14:39:22;35.64;38.04
69393;SHT31;56582;44.624;20.378;2022-08-19T14:41:48;35.35;39.44
69393;SHT31;56582;44.624;20.378;2022-08-19T14:44:13;35.06;39.74
69393;SHT31;56582;44.624;20.378;2022-08-19T14:46:39;35.00;40.69
69393;SHT31;56582;44.624;20.378;2022-08-19T14:49:06;34.86;40.86
69393;SHT31;56582;44.624;20.378;2022-08-19T14:51:31;34.72;41.11
69393;SHT31;56582;44.624;20.378;2022-08-19T14:53:57;34.51;40.91
69393;SHT31;56582;44.624;20.378;2022-08-19T14:56:25;34.24;41.90
69393;SHT31;56582;44.624;20.378;2022-08-19T14:58:52;34.14;41.76
69393;SHT31;56582;44.624;20.378;2022-08-19T15:01:18;34.19;41.83
69393;SHT31;56582;44.624;20.378;2022-08-19T15:03:46;33.97;41.94
69393;SHT31;56582;44.624;20.378;2022-08-19T15:06:11;33.87;41.97
69393;SHT31;56582;44.624;20.378;2022-08-19T15:08:38;33.63;42.48
69393;SHT31;56582;44.624;20.378;2022-08-19T15:11:09;33.61;42.21
69393;SHT31;56582;44.624;20.378;2022-08-19T15:13:35;33.47;42.84
69393;SHT31;56582;44.624;20.378;2022-08-19T15:16:01;33.45;42.61
69393;SHT31;56582;44.624;20.378;2022-08-19T15:18:27;33.46;43.02
69393;SHT31;56582;44.624;20.378;2022-08-19T15:20:53;33.40;42.86
69393;SHT31;56582;44.624;20.378;2022-08-19T15:23:20;33.42;43.26
69393;SHT31;56582;44.624;20.378;2022-08-19T15:25:46;33.11;43.99
69393;SHT31;56582;44.624;20.378;2022-08-19T15:28:12;32.82;43.76
69393;SHT31;56582;44.624;20.378;2022-08-19T15:30:38;32.81;43.37
69393;SHT31;56582;44.624;20.378;2022-08-19T15:33:05;32.50;43.39
69393;SHT31;56582;44.624;20.378;2022-08-19T15:35:31;32.41;43.70